Portada
METAR-TAF:

METAR-TAF

Aeroports :

Kenai, Alaska, Estats Units d'Amèrica

latitud: 60-34-23N, longitud: 151-14-42W, altitud: 30 m

Observació

L'informe es va fer fa 17 minuts, a les 07:53 UTC
Vent calma
Temperatura -16°C
Humitat 84%
Pressió 1005 hPa
Visibilitat: 16.1 km
Cel ennuvolat a una alçada de 7500 ft

METAR: PAEN 230753Z AUTO 00000KT 10SM BKN075 M16/M18 A2969 RMK AO2 SLPNO T11561178 TSNO

Hora: 23:10 (08:10 UTC)

Pronòstic

L'informe es va fer fa 2 hores i 31 minuts, a les 05:39 UTC
Pronòstic vàlid del 23 a les 06 UTC al 24 a les 06 UTC
Vent 4 kt amb direcció variable
Visibilitat: 10 km
Cel cobert a una alçada de 1500 ft
A partir de les 23 a les 1200 UTC
Vent 5 kt del Nord
Visibilitat: 10 km
Núvols disperses a una alçada de 1500 ft
A partir de les 24 a les 0300 UTC
Vent 11 kt del Nord
Visibilitat: 10 km
Cel clar

TAF: PAEN 230539Z 2306/2406 VRB04KT P6SM OVC015 FM231200 36005KT P6SM SCT015 FM240300 01011KT P6SM SKC

Observacions i pronòstics meteorològics de més de 4000 aeroports (METAR i TAF).

Les estacions disponibles són els punts grocs i vermells al mapa.

Posi el ratolí al punt desitjat per veure el nom de l'estació.

Feu clic per veure les observacions i els pronòstics meteorològics.

Per canviar el mapa: feu clic els botons verds amb una creu de color negre per apropar; al botó verd amb un guió per allunyar la imatge; o en les fletxes verdes per a mapes adjacents.


METAR-TAF: